Time;durP1;ratioP1;P1;durP2;ratioP2;P2;SDS_P1;SDS_P2;PMS_P1;PMS_P2;Temp;Humidity;BMP_temperature;BMP_pressure;BME280_temperature;BME280_humidity;BME280_pressure;Samples;Min_cycle;Max_cycle;Signal;HPM_P1;HPM_P2
2021/05/13 00:02:09;;;;;;;;;;;20.70;58.70;;;;;;5058279;28;19913;-77
2021/05/13 00:04:34;;;;;;;;;;;20.60;58.60;;;;;;5058977;28;20011;-76
2021/05/13 00:07:00;;;;;;;;;;;20.60;58.70;;;;;;5030823;28;20340;-76
2021/05/13 00:09:25;;;;;;;;;;;20.60;58.70;;;;;;5055927;28;19925;-76
2021/05/13 00:11:53;;;;;;;;;;;20.70;58.60;;;;;;5054815;28;19912;-76
2021/05/13 00:14:19;;;;;;;;;;;20.60;58.60;;;;;;5052268;28;20251;-77
2021/05/13 00:16:45;;;;;;;;;;;20.60;58.60;;;;;;5051034;28;19966;-76
2021/05/13 00:19:12;;;;;;;;;;;20.70;58.70;;;;;;5049457;28;20420;-76
2021/05/13 00:21:39;;;;;;;;;;;20.60;58.60;;;;;;5041688;28;19912;-77
2021/05/13 00:24:05;;;;;;;;;;;20.60;58.60;;;;;;5045119;28;19994;-77
2021/05/13 00:26:41;;;;;;;;;;;20.60;58.60;;;;;;5037445;28;20018;-76
2021/05/13 00:29:10;;;;;;;;;;;20.60;58.60;;;;;;5055888;28;19923;-76
2021/05/13 00:31:39;;;;;;;;;;;20.60;58.60;;;;;;5049950;28;20301;-77
2021/05/13 00:34:04;;;;;;;;;;;20.60;58.70;;;;;;5056478;28;19917;-76
2021/05/13 00:36:31;;;;;;;;;;;20.60;58.60;;;;;;5056055;28;20015;-76
2021/05/13 00:38:57;;;;;;;;;;;20.60;58.60;;;;;;5061359;28;20327;-76
2021/05/13 00:41:23;;;;;;;;;;;20.60;58.60;;;;;;5036298;28;20419;-77
2021/05/13 00:43:49;;;;;;;;;;;20.60;58.60;;;;;;5051950;28;19917;-76
2021/05/13 00:46:24;;;;;;;;;;;20.60;58.60;;;;;;5060822;28;20016;-76
2021/05/13 00:49:17;;;;;;;;;;;20.60;58.60;;;;;;5037852;28;19917;-77
2021/05/13 00:51:45;;;;;;;;;;;20.60;58.60;;;;;;5050769;28;19928;-80
2021/05/13 00:54:12;;;;;;;;;;;20.60;58.60;;;;;;5053331;28;19920;-77
2021/05/13 00:56:37;;;;;;;;;;;20.60;58.60;;;;;;5050979;28;19966;-76
2021/05/13 00:59:07;;;;;;;;;;;20.60;58.60;;;;;;5062637;28;19921;-77
2021/05/13 01:01:51;;;;;;;;;;;20.60;58.60;;;;;;5033580;28;19917;-76
2021/05/13 01:04:18;;;;;;;;;;;20.60;58.60;;;;;;5058401;28;19920;-76
2021/05/13 01:06:44;;;;;;;;;;;20.60;58.60;;;;;;5036011;28;20295;-76
2021/05/13 01:09:11;;;;;;;;;;;20.60;58.60;;;;;;5035709;28;20020;-78
2021/05/13 01:11:40;;;;;;;;;;;20.60;58.60;;;;;;5035322;28;20618;-76
2021/05/13 01:14:16;;;;;;;;;;;20.60;58.60;;;;;;5038952;28;19913;-77
2021/05/13 01:17:15;;;;;;;;;;;20.60;58.60;;;;;;5034203;28;19917;-76
2021/05/13 01:19:49;;;;;;;;;;;20.50;58.60;;;;;;5043873;28;19913;-76
2021/05/13 01:22:19;;;;;;;;;;;20.60;58.60;;;;;;5032085;28;19924;-78
2021/05/13 01:24:45;;;;;;;;;;;20.60;58.60;;;;;;5034791;28;19917;-76
2021/05/13 01:27:11;;;;;;;;;;;20.60;58.60;;;;;;5034898;28;19924;-76
2021/05/13 01:29:37;;;;;;;;;;;20.50;58.60;;;;;;5035723;28;20438;-77
2021/05/13 01:32:02;;;;;;;;;;;20.60;58.60;;;;;;5033911;28;19959;-76
2021/05/13 01:34:28;;;;;;;;;;;20.60;58.60;;;;;;5030510;28;19913;-76
2021/05/13 01:36:58;;;;;;;;;;;20.60;58.60;;;;;;5045768;28;19978;-76
2021/05/13 01:39:24;;;;;;;;;;;20.60;58.60;;;;;;5040866;28;19921;-76
2021/05/13 01:42:01;;;;;;;;;;;20.50;58.60;;;;;;5029682;28;19920;-76
2021/05/13 01:44:26;;;;;;;;;;;20.60;58.60;;;;;;5028984;28;20007;-77
2021/05/13 01:46:58;;;;;;;;;;;20.50;58.60;;;;;;5027327;28;19920;-76
2021/05/13 01:49:24;;;;;;;;;;;20.50;58.60;;;;;;5031440;28;20328;-76
2021/05/13 01:51:49;;;;;;;;;;;20.60;58.50;;;;;;5034747;28;19948;-77
2021/05/13 01:54:18;;;;;;;;;;;20.60;58.50;;;;;;5030441;28;19921;-77
2021/05/13 01:56:44;;;;;;;;;;;20.50;58.50;;;;;;5035715;28;19975;-77
2021/05/13 01:59:09;;;;;;;;;;;20.60;58.50;;;;;;5032048;28;19917;-76
2021/05/13 02:01:35;;;;;;;;;;;20.60;58.50;;;;;;5032209;28;19913;-77
2021/05/13 02:04:01;;;;;;;;;;;20.60;58.50;;;;;;5028509;28;20008;-76
2021/05/13 02:06:32;;;;;;;;;;;20.50;58.50;;;;;;5031206;28;19917;-76
2021/05/13 02:08:58;;;;;;;;;;;20.50;58.50;;;;;;5029214;28;19974;-79
2021/05/13 02:11:23;;;;;;;;;;;20.60;58.50;;;;;;5046651;28;19949;-75
2021/05/13 02:13:49;;;;;;;;;;;20.60;58.50;;;;;;5050562;28;20354;-77
2021/05/13 02:16:28;;;;;;;;;;;20.60;58.50;;;;;;5053231;28;19924;-76
2021/05/13 02:19:07;;;;;;;;;;;20.50;58.50;;;;;;5054310;28;20421;-77
2021/05/13 02:21:33;;;;;;;;;;;20.50;58.50;;;;;;5053351;28;19944;-76
2021/05/13 02:23:58;;;;;;;;;;;20.50;58.50;;;;;;5033695;28;20026;-76
2021/05/13 02:26:30;;;;;;;;;;;20.50;58.50;;;;;;5052967;28;19959;-76
2021/05/13 02:29:00;;;;;;;;;;;20.50;58.50;;;;;;5050377;28;20433;-77
2021/05/13 02:31:26;;;;;;;;;;;20.50;58.50;;;;;;5050775;28;19920;-77
2021/05/13 02:33:52;;;;;;;;;;;20.50;58.40;;;;;;5031090;28;19920;-79
2021/05/13 02:36:23;;;;;;;;;;;20.50;58.40;;;;;;5035916;28;19916;-77
2021/05/13 02:38:48;;;;;;;;;;;20.50;58.50;;;;;;5044242;28;19921;-77
2021/05/13 02:41:14;;;;;;;;;;;20.50;58.50;;;;;;5027945;28;19921;-77
2021/05/13 02:43:40;;;;;;;;;;;20.50;58.50;;;;;;5047527;28;19912;-77
2021/05/13 02:46:05;;;;;;;;;;;20.50;58.50;;;;;;5035920;28;19943;-77
2021/05/13 02:48:31;;;;;;;;;;;20.50;58.50;;;;;;5027740;28;19921;-77
2021/05/13 02:50:56;;;;;;;;;;;20.50;58.50;;;;;;5032905;28;20423;-78
2021/05/13 02:53:22;;;;;;;;;;;20.50;58.50;;;;;;5051081;28;20366;-77
2021/05/13 02:55:50;;;;;;;;;;;20.50;58.50;;;;;;5052750;28;20421;-77
2021/05/13 02:58:18;;;;;;;;;;;20.50;58.60;;;;;;5033245;28;19917;-78
2021/05/13 03:03:15;;;;;;;;;;;20.50;58.60;;;;;;5051899;28;20227;-77
2021/05/13 03:05:41;;;;;;;;;;;20.50;58.60;;;;;;5057319;28;19939;-77
2021/05/13 03:08:06;;;;;;;;;;;20.50;58.70;;;;;;5028985;28;20117;-78
2021/05/13 03:13:20;;;;;;;;;;;20.50;58.70;;;;;;5054632;28;19913;-76
2021/05/13 03:15:46;;;;;;;;;;;20.50;58.70;;;;;;5048972;28;19978;-78
2021/05/13 03:18:11;;;;;;;;;;;20.50;58.70;;;;;;5053863;28;20432;-78
2021/05/13 03:20:43;;;;;;;;;;;20.50;58.70;;;;;;5034764;28;19917;-77
2021/05/13 03:23:11;;;;;;;;;;;20.50;58.60;;;;;;5037883;28;19912;-78
2021/05/13 03:25:39;;;;;;;;;;;20.50;58.70;;;;;;5041260;28;19926;-76
2021/05/13 03:28:08;;;;;;;;;;;20.50;58.60;;;;;;5049851;28;19921;-78
2021/05/13 03:30:44;;;;;;;;;;;20.50;58.70;;;;;;5027960;28;19943;-78
2021/05/13 03:33:10;;;;;;;;;;;20.50;58.70;;;;;;5033128;28;19917;-77
2021/05/13 03:35:36;;;;;;;;;;;20.50;58.60;;;;;;5027316;28;19920;-77
2021/05/13 03:38:03;;;;;;;;;;;20.50;58.60;;;;;;5038967;28;19917;-77
2021/05/13 03:40:30;;;;;;;;;;;20.50;58.60;;;;;;5033574;28;19913;-77
2021/05/13 03:43:01;;;;;;;;;;;20.50;58.60;;;;;;5030708;28;20387;-77
2021/05/13 03:45:27;;;;;;;;;;;20.50;58.60;;;;;;5046073;28;19918;-77
2021/05/13 03:47:52;;;;;;;;;;;20.50;58.60;;;;;;5053616;28;19931;-77
2021/05/13 03:50:18;;;;;;;;;;;20.50;58.60;;;;;;5033356;28;19971;-77
2021/05/13 03:52:43;;;;;;;;;;;20.50;58.60;;;;;;5037545;28;19913;-77
2021/05/13 03:55:10;;;;;;;;;;;20.50;58.60;;;;;;5056471;28;19923;-77
2021/05/13 03:57:35;;;;;;;;;;;20.40;58.60;;;;;;5042202;28;19916;-76
2021/05/13 04:00:06;;;;;;;;;;;20.40;58.60;;;;;;5055635;28;20623;-77
2021/05/13 04:02:34;;;;;;;;;;;20.50;58.60;;;;;;5039734;28;20040;-78
2021/05/13 04:05:00;;;;;;;;;;;20.50;58.60;;;;;;5052758;28;20420;-76
2021/05/13 04:07:27;;;;;;;;;;;20.40;58.60;;;;;;5059930;28;19948;-77
2021/05/13 04:09:54;;;;;;;;;;;20.40;58.60;;;;;;5033358;28;20349;-78
2021/05/13 04:12:19;;;;;;;;;;;20.40;58.60;;;;;;5044105;28;19955;-77
2021/05/13 04:14:45;;;;;;;;;;;20.50;58.60;;;;;;5051091;28;19952;-77
2021/05/13 04:17:10;;;;;;;;;;;20.50;58.60;;;;;;5048009;28;19920;-77
2021/05/13 04:19:36;;;;;;;;;;;20.50;58.60;;;;;;5059740;28;19921;-76
2021/05/13 04:22:02;;;;;;;;;;;20.40;58.60;;;;;;5033316;28;19913;-77
2021/05/13 04:24:28;;;;;;;;;;;20.50;58.60;;;;;;5039330;28;19913;-77
2021/05/13 04:26:58;;;;;;;;;;;20.50;58.60;;;;;;5052600;28;19927;-78
2021/05/13 04:29:24;;;;;;;;;;;20.40;58.60;;;;;;5059702;28;19935;-77
2021/05/13 04:31:50;;;;;;;;;;;20.40;58.60;;;;;;5053391;28;19913;-77
2021/05/13 04:34:15;;;;;;;;;;;20.50;58.60;;;;;;5043923;28;19925;-77
2021/05/13 04:36:41;;;;;;;;;;;20.50;58.60;;;;;;5034936;28;19966;-78
2021/05/13 04:39:06;;;;;;;;;;;20.50;58.60;;;;;;5053517;28;19913;-77
2021/05/13 04:41:33;;;;;;;;;;;20.40;58.60;;;;;;5029419;28;19924;-78
2021/05/13 04:44:00;;;;;;;;;;;20.40;58.60;;;;;;5048863;28;19913;-77
2021/05/13 04:46:28;;;;;;;;;;;20.50;58.60;;;;;;5056699;28;19924;-76
2021/05/13 04:51:29;;;;;;;;;;;20.40;58.70;;;;;;5050227;28;20036;-77
2021/05/13 04:53:55;;;;;;;;;;;20.50;58.70;;;;;;5037999;28;19921;-76
2021/05/13 04:56:26;;;;;;;;;;;20.50;58.80;;;;;;5038066;28;19963;-79
2021/05/13 04:58:52;;;;;;;;;;;20.50;58.80;;;;;;5029135;28;20347;-77
2021/05/13 05:01:18;;;;;;;;;;;20.50;58.70;;;;;;5056262;28;19913;-78
2021/05/13 05:03:43;;;;;;;;;;;20.50;58.80;;;;;;5039640;28;19921;-77
2021/05/13 05:06:10;;;;;;;;;;;20.40;58.80;;;;;;5040058;28;20389;-77
2021/05/13 05:08:39;;;;;;;;;;;20.50;58.80;;;;;;5039204;28;19924;-77
2021/05/13 05:11:10;;;;;;;;;;;20.50;58.80;;;;;;5030637;28;20019;-77
2021/05/13 05:13:35;;;;;;;;;;;20.50;58.80;;;;;;5047445;28;19913;-77
2021/05/13 05:16:01;;;;;;;;;;;20.50;58.70;;;;;;5032962;28;19913;-77
2021/05/13 05:18:27;;;;;;;;;;;20.50;58.70;;;;;;5052352;28;19916;-76
2021/05/13 05:20:53;;;;;;;;;;;20.50;58.70;;;;;;5051277;28;19920;-77
2021/05/13 05:23:19;;;;;;;;;;;20.50;58.70;;;;;;5051111;28;19924;-77
2021/05/13 05:25:45;;;;;;;;;;;20.50;58.70;;;;;;5041645;28;19916;-76
2021/05/13 05:28:10;;;;;;;;;;;20.50;58.70;;;;;;5056311;28;19917;-77
2021/05/13 05:30:37;;;;;;;;;;;20.50;58.70;;;;;;5056191;28;19924;-75
2021/05/13 05:33:06;;;;;;;;;;;20.50;58.60;;;;;;5053922;28;19913;-77
2021/05/13 05:35:32;;;;;;;;;;;20.50;58.60;;;;;;5052784;28;19917;-76
2021/05/13 05:37:58;;;;;;;;;;;20.50;58.60;;;;;;5041045;28;19917;-76
2021/05/13 05:40:24;;;;;;;;;;;20.50;58.60;;;;;;5032881;28;19961;-78
2021/05/13 05:42:50;;;;;;;;;;;20.50;58.50;;;;;;5046416;28;20289;-77
2021/05/13 05:45:16;;;;;;;;;;;20.50;58.60;;;;;;5028397;28;19920;-77
2021/05/13 05:47:42;;;;;;;;;;;20.50;58.50;;;;;;5056806;28;19917;-76
2021/05/13 05:50:08;;;;;;;;;;;20.50;58.50;;;;;;5056055;28;20283;-77
2021/05/13 05:52:34;;;;;;;;;;;20.50;58.40;;;;;;5033508;28;20504;-77
2021/05/13 05:55:06;;;;;;;;;;;20.50;58.40;;;;;;5053875;28;19944;-77
2021/05/13 05:57:35;;;;;;;;;;;20.50;58.40;;;;;;5048674;28;20031;-78
2021/05/13 06:00:02;;;;;;;;;;;20.50;58.30;;;;;;5045790;28;20330;-77
2021/05/13 06:02:47;;;;;;;;;;;20.50;58.30;;;;;;5050713;28;21414;-76
2021/05/13 06:05:13;;;;;;;;;;;20.50;58.30;;;;;;5030697;28;19924;-76
2021/05/13 06:07:39;;;;;;;;;;;20.50;58.30;;;;;;5033565;28;20016;-77
2021/05/13 06:10:06;;;;;;;;;;;20.50;58.30;;;;;;5055308;28;20055;-77
2021/05/13 06:12:32;;;;;;;;;;;20.60;58.20;;;;;;5029696;28;19924;-77
2021/05/13 06:14:57;;;;;;;;;;;20.60;58.20;;;;;;5048126;28;19913;-77
2021/05/13 06:17:23;;;;;;;;;;;20.60;58.20;;;;;;5048875;28;19916;-76
2021/05/13 06:19:48;;;;;;;;;;;20.60;58.20;;;;;;5037061;28;19951;-77
2021/05/13 06:22:14;;;;;;;;;;;20.60;58.10;;;;;;5052755;28;20338;-77
2021/05/13 06:24:44;;;;;;;;;;;20.60;58.10;;;;;;5038237;28;19920;-78
2021/05/13 06:27:17;;;;;;;;;;;20.60;58.10;;;;;;5049678;28;19994;-77
2021/05/13 06:29:42;;;;;;;;;;;20.60;58.00;;;;;;5049578;28;19913;-78
2021/05/13 06:32:08;;;;;;;;;;;20.60;58.00;;;;;;5028268;28;19920;-77
2021/05/13 06:34:33;;;;;;;;;;;20.60;58.00;;;;;;5047489;28;19923;-77
2021/05/13 06:37:00;;;;;;;;;;;20.60;58.00;;;;;;5047933;28;19925;-77
2021/05/13 06:39:26;;;;;;;;;;;20.70;58.00;;;;;;5037859;28;19913;-77
2021/05/13 06:41:52;;;;;;;;;;;20.70;58.00;;;;;;5031902;28;19967;-78
2021/05/13 06:44:18;;;;;;;;;;;20.70;58.00;;;;;;5030479;28;19919;-77
2021/05/13 06:46:44;;;;;;;;;;;20.70;58.00;;;;;;5036496;28;19956;-77
2021/05/13 06:49:09;;;;;;;;;;;20.60;58.00;;;;;;5045737;28;19963;-77
2021/05/13 06:51:34;;;;;;;;;;;20.70;58.00;;;;;;5049687;28;19920;-81
2021/05/13 06:54:00;;;;;;;;;;;20.70;57.90;;;;;;5033499;28;20003;-78
2021/05/13 06:56:26;;;;;;;;;;;20.70;57.90;;;;;;5050397;28;20366;-77
2021/05/13 06:58:52;;;;;;;;;;;20.70;57.90;;;;;;5051267;28;20289;-77
2021/05/13 07:01:17;;;;;;;;;;;20.70;57.80;;;;;;5051488;28;19916;-77
2021/05/13 07:03:43;;;;;;;;;;;20.70;57.80;;;;;;5032459;28;19921;-75
2021/05/13 07:06:08;;;;;;;;;;;20.70;57.80;;;;;;5052456;28;19916;-77
2021/05/13 07:08:34;;;;;;;;;;;20.70;57.70;;;;;;5049465;28;20328;-77
2021/05/13 07:11:00;;;;;;;;;;;20.80;57.70;;;;;;5050075;28;20011;-77
2021/05/13 07:13:25;;;;;;;;;;;20.80;57.70;;;;;;5031393;28;19920;-77
2021/05/13 07:15:51;;;;;;;;;;;20.80;57.60;;;;;;5046695;28;19919;-77
2021/05/13 07:18:17;;;;;;;;;;;20.80;57.60;;;;;;5032892;28;19925;-77
2021/05/13 07:20:43;;;;;;;;;;;20.80;57.50;;;;;;5033681;28;20349;-77
2021/05/13 07:23:09;;;;;;;;;;;20.80;57.50;;;;;;5055809;28;19923;-76
2021/05/13 07:25:35;;;;;;;;;;;20.80;57.50;;;;;;5055983;28;19920;-78
2021/05/13 07:28:00;;;;;;;;;;;20.80;57.40;;;;;;5053951;28;19928;-78
2021/05/13 07:30:26;;;;;;;;;;;20.80;57.40;;;;;;5055813;28;19913;-76
2021/05/13 07:32:52;;;;;;;;;;;20.80;57.40;;;;;;5060566;28;19932;-77
2021/05/13 07:35:18;;;;;;;;;;;20.90;57.40;;;;;;5038288;28;20023;-77
2021/05/13 07:37:44;;;;;;;;;;;20.90;57.30;;;;;;5054984;28;21403;-77
2021/05/13 07:40:10;;;;;;;;;;;20.90;57.30;;;;;;5034981;28;20370;-77
2021/05/13 07:42:35;;;;;;;;;;;20.80;57.30;;;;;;5053431;28;20017;-77
2021/05/13 07:45:01;;;;;;;;;;;20.90;57.30;;;;;;5051775;28;20401;-77
2021/05/13 07:47:28;;;;;;;;;;;20.90;57.30;;;;;;5056102;28;19917;-77
2021/05/13 07:49:53;;;;;;;;;;;20.90;57.30;;;;;;5051256;28;20451;-81
2021/05/13 07:52:19;;;;;;;;;;;20.90;57.30;;;;;;5050374;28;20008;-77
2021/05/13 07:54:44;;;;;;;;;;;20.90;57.30;;;;;;5054379;28;20062;-76
2021/05/13 07:57:12;;;;;;;;;;;20.90;57.40;;;;;;5032387;28;19913;-77
2021/05/13 07:59:38;;;;;;;;;;;20.90;57.40;;;;;;5056942;28;19920;-77
2021/05/13 08:02:04;;;;;;;;;;;20.90;57.30;;;;;;5051298;28;19951;-77
2021/05/13 08:04:30;;;;;;;;;;;20.90;57.40;;;;;;5037520;28;20234;-77
2021/05/13 08:06:55;;;;;;;;;;;20.90;57.40;;;;;;5053021;28;19931;-77
2021/05/13 08:09:21;;;;;;;;;;;20.90;57.50;;;;;;5035781;28;19928;-77
2021/05/13 08:11:46;;;;;;;;;;;20.80;57.50;;;;;;5047366;28;20662;-77
2021/05/13 08:14:12;;;;;;;;;;;20.80;57.50;;;;;;5035392;28;19928;-77
2021/05/13 08:16:37;;;;;;;;;;;20.80;57.60;;;;;;5036638;28;19913;-79
2021/05/13 08:19:04;;;;;;;;;;;20.80;57.70;;;;;;5056721;28;20380;-76
2021/05/13 08:21:30;;;;;;;;;;;20.80;57.70;;;;;;5034538;28;20460;-78
2021/05/13 08:23:55;;;;;;;;;;;20.80;57.70;;;;;;5049032;28;20007;-79
2021/05/13 08:26:21;;;;;;;;;;;20.80;57.80;;;;;;5028642;28;19928;-78
2021/05/13 08:28:46;;;;;;;;;;;20.80;57.80;;;;;;5031560;28;20350;-79
2021/05/13 08:31:12;;;;;;;;;;;20.80;57.70;;;;;;5025868;28;19960;-78
2021/05/13 08:33:37;;;;;;;;;;;20.90;57.60;;;;;;5027558;28;19921;-79
2021/05/13 08:36:03;;;;;;;;;;;20.90;57.60;;;;;;5033770;28;20011;-83
2021/05/13 08:38:28;;;;;;;;;;;20.90;57.50;;;;;;5055099;28;19964;-79
2021/05/13 08:40:54;;;;;;;;;;;21.00;57.50;;;;;;5053741;28;20310;-81
2021/05/13 08:43:24;;;;;;;;;;;21.00;57.50;;;;;;5032731;28;20282;-81
2021/05/13 08:45:52;;;;;;;;;;;21.00;57.70;;;;;;5030308;28;19978;-81
2021/05/13 08:48:17;;;;;;;;;;;21.00;57.70;;;;;;5034299;28;19916;-81
2021/05/13 08:50:43;;;;;;;;;;;21.00;57.80;;;;;;5049651;28;19920;-80
2021/05/13 08:53:08;;;;;;;;;;;21.00;58.00;;;;;;5053630;28;20277;-82
2021/05/13 08:55:35;;;;;;;;;;;21.00;58.10;;;;;;5054941;28;20326;-81
2021/05/13 08:58:00;;;;;;;;;;;21.00;58.30;;;;;;5034310;28;19973;-81
2021/05/13 09:00:26;;;;;;;;;;;21.00;58.30;;;;;;5057307;28;19924;-77
2021/05/13 09:02:51;;;;;;;;;;;21.00;58.30;;;;;;5048011;28;19935;-78
2021/05/13 09:05:17;;;;;;;;;;;21.00;58.50;;;;;;5044638;28;20423;-77
2021/05/13 09:07:43;;;;;;;;;;;20.90;58.70;;;;;;5034832;28;19970;-78
2021/05/13 09:10:08;;;;;;;;;;;20.90;58.70;;;;;;5035234;28;19932;-77
2021/05/13 09:12:39;;;;;;;;;;;21.00;58.70;;;;;;5041416;28;19913;-77
2021/05/13 09:15:06;;;;;;;;;;;21.00;58.90;;;;;;5036197;28;20461;-78
2021/05/13 09:17:32;;;;;;;;;;;21.00;59.10;;;;;;5057241;28;19955;-78
2021/05/13 09:19:57;;;;;;;;;;;21.00;59.10;;;;;;5055899;28;19956;-77
2021/05/13 09:22:29;;;;;;;;;;;21.00;58.90;;;;;;5053947;28;20006;-77
2021/05/13 09:24:57;;;;;;;;;;;21.00;58.70;;;;;;5055740;28;19917;-77
2021/05/13 09:27:23;;;;;;;;;;;21.00;58.70;;;;;;5048705;28;19924;-77
2021/05/13 09:30:00;;;;;;;;;;;21.00;58.80;;;;;;5056534;28;19917;-79
2021/05/13 09:32:26;;;;;;;;;;;21.00;58.90;;;;;;5033494;28;19928;-77
2021/05/13 09:34:51;;;;;;;;;;;20.90;59.10;;;;;;5054425;28;19913;-77
2021/05/13 09:37:17;;;;;;;;;;;20.90;59.20;;;;;;5049803;28;20321;-80
2021/05/13 09:39:46;;;;;;;;;;;20.90;59.40;;;;;;5047320;28;19913;-78
2021/05/13 09:42:15;;;;;;;;;;;20.90;59.20;;;;;;5046990;28;19916;-78
2021/05/13 09:44:41;;;;;;;;;;;20.90;59.20;;;;;;5032443;28;19919;-78
2021/05/13 09:47:21;;;;;;;;;;;21.00;59.10;;;;;;5037152;28;19917;-77
2021/05/13 09:49:56;;;;;;;;;;;21.00;58.80;;;;;;5052776;28;19923;-78
2021/05/13 09:52:41;;;;;;;;;;;21.00;58.80;;;;;;5032994;28;20255;-76
2021/05/13 09:55:17;;;;;;;;;;;21.10;59.00;;;;;;5046322;28;20277;-76
2021/05/13 09:57:54;;;;;;;;;;;21.00;58.80;;;;;;5048611;28;19928;-77
2021/05/13 10:00:36;;;;;;;;;;;21.10;58.90;;;;;;5048696;28;19956;-79
2021/05/13 10:03:04;;;;;;;;;;;21.00;59.00;;;;;;5042406;28;19920;-77
2021/05/13 10:05:43;;;;;;;;;;;21.00;59.00;;;;;;5029158;28;20370;-79
2021/05/13 10:08:15;;;;;;;;;;;21.00;59.30;;;;;;5027542;28;19928;-77
2021/05/13 10:10:41;;;;;;;;;;;20.90;59.40;;;;;;5025699;28;19932;-77
2021/05/13 10:13:10;;;;;;;;;;;20.80;59.60;;;;;;5026412;28;19983;-77
2021/05/13 10:15:38;;;;;;;;;;;20.80;59.50;;;;;;5025012;28;19998;-78
2021/05/13 10:18:16;;;;;;;;;;;20.80;59.60;;;;;;5023854;28;19921;-77
2021/05/13 10:21:20;;;;;;;;;;;20.80;59.70;;;;;;5024368;28;20016;-79
2021/05/13 10:23:50;;;;;;;;;;;20.80;59.70;;;;;;5026196;28;19936;-80
2021/05/13 10:26:37;;;;;;;;;;;20.80;59.60;;;;;;5027583;28;20277;-76
2021/05/13 10:29:26;;;;;;;;;;;20.90;59.50;;;;;;5048385;28;19921;-77
2021/05/13 10:32:00;;;;;;;;;;;20.90;59.30;;;;;;5047717;28;19917;-76
2021/05/13 10:34:42;;;;;;;;;;;21.00;59.20;;;;;;5044370;28;19959;-77
2021/05/13 10:37:13;;;;;;;;;;;21.00;59.20;;;;;;5033986;28;19913;-77
2021/05/13 10:41:03;;;;;;;;;;;21.10;59.00;;;;;;5047966;28;19920;-81
2021/05/13 10:43:04;;;;;;;;;;;21.10;59.00;;;;;;5019491;28;19921;-77
2021/05/13 10:45:29;;;;;;;;;;;21.10;58.90;;;;;;5026172;28;20456;-77
2021/05/13 10:48:10;;;;;;;;;;;21.10;58.90;;;;;;5026337;28;19925;-79
2021/05/13 10:50:44;;;;;;;;;;;21.10;58.90;;;;;;5041694;28;19920;-81
2021/05/13 10:53:33;;;;;;;;;;;21.10;59.00;;;;;;5032267;28;19988;-77
2021/05/13 10:56:14;;;;;;;;;;;21.10;58.90;;;;;;5046260;28;19924;-77
2021/05/13 10:59:03;;;;;;;;;;;21.10;59.00;;;;;;5033532;28;19928;-80
2021/05/13 11:01:40;;;;;;;;;;;21.00;59.00;;;;;;5031884;28;20011;-78
2021/05/13 11:04:21;;;;;;;;;;;21.00;59.20;;;;;;5031635;28;19921;-77
2021/05/13 11:06:58;;;;;;;;;;;21.00;59.30;;;;;;5024969;28;20270;-77
2021/05/13 11:09:45;;;;;;;;;;;21.00;59.50;;;;;;5028622;28;19929;-78
2021/05/13 11:12:11;;;;;;;;;;;21.00;59.40;;;;;;5024737;28;19921;-77
2021/05/13 11:20:29;;;;;;;;;;;21.10;59.10;;;;;;5048994;28;19985;-78
2021/05/13 11:22:58;;;;;;;;;;;21.00;59.20;;;;;;5025626;28;19913;-77
2021/05/13 11:25:44;;;;;;;;;;;21.10;59.10;;;;;;5024009;28;19924;-77
2021/05/13 11:28:25;;;;;;;;;;;21.10;59.20;;;;;;5029846;28;20581;-79
2021/05/13 11:30:55;;;;;;;;;;;21.00;59.10;;;;;;5043509;28;19921;-77
2021/05/13 11:33:21;;;;;;;;;;;21.00;59.20;;;;;;5049135;28;19936;-77
2021/05/13 11:35:51;;;;;;;;;;;21.00;59.30;;;;;;5049323;28;19921;-77
2021/05/13 11:38:18;;;;;;;;;;;21.00;59.40;;;;;;5044465;28;20377;-78
2021/05/13 11:40:48;;;;;;;;;;;20.90;59.40;;;;;;5043822;28;19921;-77
2021/05/13 11:43:14;;;;;;;;;;;20.90;59.50;;;;;;5033283;28;20004;-78
2021/05/13 11:45:40;;;;;;;;;;;20.80;59.60;;;;;;5028389;28;19925;-77
2021/05/13 11:48:26;;;;;;;;;;;20.80;59.80;;;;;;5034431;28;19920;-78
2021/05/13 11:50:52;;;;;;;;;;;20.80;59.90;;;;;;5048504;28;19913;-77
2021/05/13 11:53:18;;;;;;;;;;;20.80;59.90;;;;;;5028472;28;20703;-77
2021/05/13 11:55:44;;;;;;;;;;;20.80;60.00;;;;;;5041030;28;20361;-76
2021/05/13 11:58:11;;;;;;;;;;;20.80;60.10;;;;;;5035282;28;20336;-77
2021/05/13 12:00:37;;;;;;;;;;;20.80;60.10;;;;;;5042276;28;19913;-77
2021/05/13 12:03:15;;;;;;;;;;;20.80;60.10;;;;;;5026246;28;19963;-79
2021/05/13 12:05:45;;;;;;;;;;;20.80;60.10;;;;;;5043900;28;19974;-78
2021/05/13 12:08:11;;;;;;;;;;;20.80;60.10;;;;;;5046668;28;19920;-77
2021/05/13 12:10:36;;;;;;;;;;;20.80;60.10;;;;;;5030267;28;19920;-77
2021/05/13 12:13:02;;;;;;;;;;;20.80;60.10;;;;;;5029457;28;19966;-77
2021/05/13 12:15:28;;;;;;;;;;;20.80;60.00;;;;;;5044949;28;20420;-77
2021/05/13 12:17:54;;;;;;;;;;;20.80;60.00;;;;;;5034962;28;19917;-77
2021/05/13 12:20:19;;;;;;;;;;;20.80;59.90;;;;;;5052465;28;19967;-77
2021/05/13 12:22:45;;;;;;;;;;;20.80;59.80;;;;;;5053688;28;20645;-77
2021/05/13 12:25:11;;;;;;;;;;;20.80;59.70;;;;;;5027145;28;20382;-77
2021/05/13 12:27:36;;;;;;;;;;;20.80;59.70;;;;;;5047724;28;19921;-77
2021/05/13 12:30:02;;;;;;;;;;;20.80;59.70;;;;;;5028960;28;19924;-77
2021/05/13 12:32:31;;;;;;;;;;;20.80;59.70;;;;;;5028892;28;19920;-76
2021/05/13 12:34:57;;;;;;;;;;;20.80;59.70;;;;;;5054611;28;19919;-77
2021/05/13 12:37:23;;;;;;;;;;;20.90;59.70;;;;;;5049449;28;20285;-77
2021/05/13 12:39:49;;;;;;;;;;;20.80;59.70;;;;;;5040805;28;19920;-77
2021/05/13 12:42:31;;;;;;;;;;;20.80;59.70;;;;;;5013755;28;19966;-77
2021/05/13 12:45:15;;;;;;;;;;;20.90;59.60;;;;;;5049149;28;20357;-77
2021/05/13 12:47:41;;;;;;;;;;;20.90;59.60;;;;;;5042886;28;19913;-77
2021/05/13 12:50:07;;;;;;;;;;;20.90;59.60;;;;;;5030982;28;19928;-81
2021/05/13 12:52:33;;;;;;;;;;;20.90;59.90;;;;;;5030798;28;19920;-81
2021/05/13 12:55:15;;;;;;;;;;;20.90;59.70;;;;;;5028064;28;20015;-81
2021/05/13 12:57:42;;;;;;;;;;;20.90;59.80;;;;;;5047716;28;19921;-81
2021/05/13 13:00:08;;;;;;;;;;;20.90;60.00;;;;;;5048226;28;19986;-81
2021/05/13 13:02:34;;;;;;;;;;;20.90;60.00;;;;;;5033942;28;19913;-80
2021/05/13 13:05:02;;;;;;;;;;;20.90;59.90;;;;;;5035359;28;19920;-81
2021/05/13 13:07:34;;;;;;;;;;;20.90;59.80;;;;;;5031517;28;20000;-84
2021/05/13 13:10:18;;;;;;;;;;;21.00;59.60;;;;;;5037187;28;20400;-81
2021/05/13 13:12:44;;;;;;;;;;;21.00;59.60;;;;;;5051624;28;20370;-81
2021/05/13 13:15:12;;;;;;;;;;;20.90;59.40;;;;;;5056313;28;19916;-82
2021/05/13 13:17:39;;;;;;;;;;;21.00;59.40;;;;;;5054172;28;19918;-85
2021/05/13 13:20:09;;;;;;;;;;;21.00;59.40;;;;;;5030847;28;20297;-80
2021/05/13 13:22:38;;;;;;;;;;;21.00;59.40;;;;;;5049580;28;19916;-81
2021/05/13 13:25:10;;;;;;;;;;;21.00;59.40;;;;;;5035223;28;19925;-83
2021/05/13 13:27:39;;;;;;;;;;;21.00;59.40;;;;;;5030394;28;20035;-81
2021/05/13 13:30:15;;;;;;;;;;;21.00;59.40;;;;;;5053655;28;20138;-81
2021/05/13 13:32:42;;;;;;;;;;;21.00;59.30;;;;;;5041915;28;19974;-83
2021/05/13 13:35:10;;;;;;;;;;;21.00;59.30;;;;;;5037066;28;19924;-85
2021/05/13 13:37:36;;;;;;;;;;;21.00;59.10;;;;;;5033974;28;20654;-82
2021/05/13 13:40:02;;;;;;;;;;;21.00;59.00;;;;;;5054900;28;19919;-80
2021/05/13 13:42:29;;;;;;;;;;;21.10;59.00;;;;;;5055218;28;19917;-81
2021/05/13 13:44:54;;;;;;;;;;;21.10;59.00;;;;;;5051487;28;19921;-81
2021/05/13 13:47:20;;;;;;;;;;;21.10;58.90;;;;;;5058164;28;19965;-81
2021/05/13 13:49:46;;;;;;;;;;;21.00;58.90;;;;;;5051573;28;19960;-81
2021/05/13 13:52:12;;;;;;;;;;;21.00;59.10;;;;;;5051678;28;19917;-81
2021/05/13 13:54:37;;;;;;;;;;;20.90;59.10;;;;;;5055254;28;19921;-82
2021/05/13 13:57:03;;;;;;;;;;;20.90;59.30;;;;;;5035648;28;20035;-84
2021/05/13 13:59:33;;;;;;;;;;;20.90;59.40;;;;;;5054028;28;19912;-82
2021/05/13 14:01:59;;;;;;;;;;;20.90;59.40;;;;;;5033911;28;19921;-81
2021/05/13 14:04:24;;;;;;;;;;;21.00;59.20;;;;;;5033338;28;20381;-82
2021/05/13 14:06:50;;;;;;;;;;;21.00;59.10;;;;;;5034682;28;19929;-81
2021/05/13 14:09:17;;;;;;;;;;;21.10;59.00;;;;;;5048393;28;19921;-82
2021/05/13 14:11:42;;;;;;;;;;;21.10;58.80;;;;;;5052825;28;19921;-81
2021/05/13 14:14:08;;;;;;;;;;;21.10;58.80;;;;;;5051569;28;19927;-81
2021/05/13 14:16:34;;;;;;;;;;;21.10;58.70;;;;;;5037456;28;19928;-81
2021/05/13 14:18:59;;;;;;;;;;;21.20;58.60;;;;;;5033002;28;20380;-80
2021/05/13 14:21:25;;;;;;;;;;;21.20;58.70;;;;;;5032550;28;19912;-77
2021/05/13 14:23:50;;;;;;;;;;;21.10;59.10;;;;;;5036452;28;19916;-77
2021/05/13 14:26:16;;;;;;;;;;;21.00;59.30;;;;;;5047546;28;20297;-77
2021/05/13 14:28:46;;;;;;;;;;;21.00;59.40;;;;;;5053336;28;19928;-80
2021/05/13 14:31:12;;;;;;;;;;;21.00;59.60;;;;;;5051796;28;19913;-77
2021/05/13 14:33:42;;;;;;;;;;;21.00;59.60;;;;;;5050957;28;20032;-78
2021/05/13 14:36:08;;;;;;;;;;;20.90;59.60;;;;;;5047683;28;20358;-78
2021/05/13 14:38:35;;;;;;;;;;;20.90;59.60;;;;;;5057468;28;19916;-77